Delhi, Canada
Current Conditions -  °F | °C
As of 2:10 PM on Tuesday 21 Oct 2014 (Local Time) from CYXU Reporting Station
Rain Showers Rain Showers  
Wind Chill: 40°   Ceiling: 1000
Heat Index: 46°   Visibility: 10mi
Dew Point: 45°   Wind: 15mph
Humidity: 93%   Direction: 350°N
Pressure: 29.94"   Gusts: 21mph
Location:  42.85°N, 80.49°W
Report Text: CYXU 211810Z 35013G18KT 10SM -SHRA OVC010 08/07 A2994 RMK SF8 CU EMBD CIG RAG SLP144
Loading
Personal Weather Stations






























Interactive Weather Map New forecast layout! Learn more

10-Day Weather Forecast

Advertisements
Track Severe Weather on mobile